Hazlehurst, GA (31539)

10:35 PM EDT on July 30, 2014 (GMT -0400)
Hazlehurst (KAZE) Elev 256 ft | 31.88 °N, 82.65 °W | Change Station

Current weather conditions updated 20 minutes ago

Mostly Cloudy
Mostly Cloudy
82 °F
Feels Like 85 °F
N
0
Wind Variable Wind from North

Tomorrow is forecast to be nearly the same temperature as today. Partly cloudy with a stray thunderstorm.

Today
High -- | Low -- °F
--% Chance of Precip.
Yesterday
High -- | Low -- °F
Precip. -- in
6:44 AM 8:28 PM
Waxing Crescent, 15% visible
Pressure 29.99 in
Visibility 10.0 miles
Clouds Scattered Clouds 5000 ft
Mostly Cloudy 8000 ft
Mostly Cloudy 9000 ft
Heat Index 85 °F
Dew Point 67 °F
Humidity 59%
Rainfall 0.00 in
Snow Depth Not available.
UV 0 out of 12
Pollen 4.80 out of 12
Air Quality Not available.
Flu Activity Not available.
METAR KAZE 310215Z AUTO 00000KT 10SM SCT050 BKN080 BKN090 28/19 A2999 RMK AO2 T02800194

More Conditions Fewer Conditions

Pressure 29.99 in
Visibility 10.0 miles
Clouds Scattered Clouds 5000 ft
Mostly Cloudy 8000 ft
Mostly Cloudy 9000 ft
Heat Index 85 °F
Dew Point 67 °F
Humidity 59%
Rainfall 0.00 in
Snow Depth Not available.
UV 0 out of 12
Pollen 4.80 out of 12
Air Quality Not available.
Flu Activity Not available.
METAR KAZE 310215Z AUTO 00000KT 10SM SCT050 BKN080 BKN090 28/19 A2999 RMK AO2 T02800194

More Conditions Fewer Conditions

10-Day Weather Forecast

Almanac

Astronomy

Jul. 30, 2014 Rise Set
Actual Time 6:44 AM EDT 8:28 PM EDT
Civil Twilight 6:17 AM EDT 8:55 PM EDT
Nautical Twilight 5:45 AM EDT 9:27 PM EDT
Astronomical Twilight 5:11 AM EDT 10:01 PM EDT
Moon 9:59 AM EDT (7/30) 10:27 PM EDT (7/30)
Length of Visible Light 14h 37m
Length of Day
13h 43m
Tomorrow will be 1m 26s shorter.
Waxing Crescent, 15% of the Moon is Illuminated
Today
Waxing Crescent
Aug 3
First Quarter
Aug 10
Full
Aug 17
Last Quarter
Aug 25
New

Today's Extremes

State Highs State Lows

Community

WunderPhotos

Upload Photos

1,739,272 photos uploaded!

Nearby

Snow Depth

Station Depth Elevation
No new snow has been reported.

Earthquake Activity

City Distance Mag. Time & Date
No recent earthquake activity has been reported nearby.
Minimum magnitude displayed is 2.5.

Coastal Water Temperatures

Place Temperature
No Stations Reporting

Nearby Weather Stations

Station Location Temp. Heat Index Dew Point Humidity Wind Precip. Elev Updated Type
Appling, Baxley, GA 79.9 °F 84 °F 72 °F 77% SE  at  3.8 mph 0.00 in / hr 203 ft 10:29 PM EDT Rapid Fire
Alamo, Alamo, GA 75.6 °F 77 °F 63 °F 66% WNW  at  0.0 mph - / hr 259 ft 10:25 PM EDT Normal
RAWS BAXLEY GA, Baxley, GA 79 °F 81 °F 68 °F 69% WSW  at  4 mph 0.00 in / hr 194 ft 10:04 PM EDT MADIS
Jacksonville, GA 73.5 °F 74 °F 67 °F 79% NW  at  0.0 mph 0.00 in / hr 171 ft 10:32 PM EDT Normal
RAWS MCRAE GA, McRae, GA 73 °F 75 °F 64 °F 73% NE  at  3 mph 0.00 in / hr 201 ft 10:03 PM EDT MADIS

Show More Stations Show Fewer Stations